Alta, Wyoming
Current Conditions -  °F | °C
As of 9:56 AM on Friday 31 Oct 2014 (Local Time) from KDIJ Reporting Station
Clear Clear  
Wind Chill: 59°   Ceiling: Unl
Heat Index: 59°   Visibility: 10mi
Dew Point: 27°   Wind: 14mph
Humidity: 30%   Direction: 190°S
Pressure: 30.05"   Gusts: NA
Location:  43.77°N, 110.98°W
Report Text: KDIJ 311556Z AUTO 19012KT 10SM CLR 15/M03 A3005 RMK AO2 T01501027 SLP120
Loading
Personal Weather Stations






























Interactive Weather Map
Tropical Storm Tracking
New forecast layout! Learn more

10-Day Weather Forecast

Advertisements
Track Severe Weather on mobile